Terminal Aerodrome Forecast
Issued by NWS

Home | Current Version | Previous Version | Text Only | Print | Product List | Glossary On
Versions: 1 2 3 4 5 6 7 8 9 10 11 12 13 14 15
000
FTUS44 KLIX 201100
TAFGPT
TAF
KGPT 201120Z 2012/2112 06006KT P6SM SKC
     FM201800 10008KT P6SM FEW050
     FM210600 05006KT P6SM FEW250=

USA.gov is the U.S. government's official web portal to all federal, state and local government web resources and services.